sensor_id;sensor_type;location;lat;lon;timestamp;temperature;humidity
18365;DHT22;9309;52.126;11.616;2023-04-25T00:01:27;7.10;76.10
18365;DHT22;9309;52.126;11.616;2023-04-25T00:03:54;7.10;76.10
18365;DHT22;9309;52.126;11.616;2023-04-25T00:06:21;7.10;76.10
18365;DHT22;9309;52.126;11.616;2023-04-25T00:08:52;7.00;76.80
18365;DHT22;9309;52.126;11.616;2023-04-25T00:11:20;7.00;76.40
18365;DHT22;9309;52.126;11.616;2023-04-25T00:13:46;6.90;76.50
18365;DHT22;9309;52.126;11.616;2023-04-25T00:16:15;6.80;77.70
18365;DHT22;9309;52.126;11.616;2023-04-25T00:18:42;6.80;78.20
18365;DHT22;9309;52.126;11.616;2023-04-25T00:21:09;6.90;77.20
18365;DHT22;9309;52.126;11.616;2023-04-25T00:23:36;7.10;76.40
18365;DHT22;9309;52.126;11.616;2023-04-25T00:26:04;7.10;76.30
18365;DHT22;9309;52.126;11.616;2023-04-25T00:28:32;7.20;76.30
18365;DHT22;9309;52.126;11.616;2023-04-25T00:30:59;7.20;76.20
18365;DHT22;9309;52.126;11.616;2023-04-25T00:33:25;7.30;75.80
18365;DHT22;9309;52.126;11.616;2023-04-25T00:35:52;7.40;74.90
18365;DHT22;9309;52.126;11.616;2023-04-25T00:38:19;7.50;74.80
18365;DHT22;9309;52.126;11.616;2023-04-25T00:40:46;7.60;74.10
18365;DHT22;9309;52.126;11.616;2023-04-25T00:43:13;7.60;74.60
18365;DHT22;9309;52.126;11.616;2023-04-25T00:45:43;7.60;74.30
18365;DHT22;9309;52.126;11.616;2023-04-25T00:48:10;7.70;74.10
18365;DHT22;9309;52.126;11.616;2023-04-25T00:50:37;7.70;74.00
18365;DHT22;9309;52.126;11.616;2023-04-25T00:53:04;7.70;74.00
18365;DHT22;9309;52.126;11.616;2023-04-25T00:55:31;7.70;74.40
18365;DHT22;9309;52.126;11.616;2023-04-25T00:58:00;7.60;75.00
18365;DHT22;9309;52.126;11.616;2023-04-25T01:00:26;7.70;74.60
18365;DHT22;9309;52.126;11.616;2023-04-25T01:02:55;7.80;74.10
18365;DHT22;9309;52.126;11.616;2023-04-25T01:05:21;7.80;74.20
18365;DHT22;9309;52.126;11.616;2023-04-25T01:07:49;7.80;74.00
18365;DHT22;9309;52.126;11.616;2023-04-25T01:10:15;7.70;73.90
18365;DHT22;9309;52.126;11.616;2023-04-25T01:12:42;7.60;74.20
18365;DHT22;9309;52.126;11.616;2023-04-25T01:15:09;7.60;74.30
18365;DHT22;9309;52.126;11.616;2023-04-25T01:17:36;7.70;73.80
18365;DHT22;9309;52.126;11.616;2023-04-25T01:20:07;7.70;74.00
18365;DHT22;9309;52.126;11.616;2023-04-25T01:22:36;7.80;73.90
18365;DHT22;9309;52.126;11.616;2023-04-25T01:25:04;7.80;73.40
18365;DHT22;9309;52.126;11.616;2023-04-25T01:27:31;7.80;73.30
18365;DHT22;9309;52.126;11.616;2023-04-25T01:29:59;7.80;73.40
18365;DHT22;9309;52.126;11.616;2023-04-25T01:32:26;7.70;73.40
18365;DHT22;9309;52.126;11.616;2023-04-25T01:34:54;7.70;73.80
18365;DHT22;9309;52.126;11.616;2023-04-25T01:37:21;7.60;73.80
18365;DHT22;9309;52.126;11.616;2023-04-25T01:39:49;7.60;74.00
18365;DHT22;9309;52.126;11.616;2023-04-25T01:42:18;7.60;74.30
18365;DHT22;9309;52.126;11.616;2023-04-25T01:44:45;7.60;74.00
18365;DHT22;9309;52.126;11.616;2023-04-25T01:47:11;7.70;73.80
18365;DHT22;9309;52.126;11.616;2023-04-25T01:49:38;7.70;74.20
18365;DHT22;9309;52.126;11.616;2023-04-25T01:52:05;7.60;74.30
18365;DHT22;9309;52.126;11.616;2023-04-25T01:54:32;7.50;75.30
18365;DHT22;9309;52.126;11.616;2023-04-25T01:57:00;7.50;74.70
18365;DHT22;9309;52.126;11.616;2023-04-25T01:59:27;7.40;75.20
18365;DHT22;9309;52.126;11.616;2023-04-25T02:02:03;7.50;75.30
18365;DHT22;9309;52.126;11.616;2023-04-25T02:04:31;7.40;75.60
18365;DHT22;9309;52.126;11.616;2023-04-25T02:06:58;7.30;76.00
18365;DHT22;9309;52.126;11.616;2023-04-25T02:09:33;7.40;75.60
18365;DHT22;9309;52.126;11.616;2023-04-25T02:12:08;7.50;75.20
18365;DHT22;9309;52.126;11.616;2023-04-25T02:14:53;7.60;74.70
18365;DHT22;9309;52.126;11.616;2023-04-25T02:17:49;7.50;75.00
18365;DHT22;9309;52.126;11.616;2023-04-25T02:20:18;7.50;74.60
18365;DHT22;9309;52.126;11.616;2023-04-25T02:22:45;7.50;74.70
18365;DHT22;9309;52.126;11.616;2023-04-25T02:25:12;7.60;74.40
18365;DHT22;9309;52.126;11.616;2023-04-25T02:27:41;7.50;74.50
18365;DHT22;9309;52.126;11.616;2023-04-25T02:30:09;7.50;74.80
18365;DHT22;9309;52.126;11.616;2023-04-25T02:32:36;7.60;74.70
18365;DHT22;9309;52.126;11.616;2023-04-25T02:35:03;7.50;74.90
18365;DHT22;9309;52.126;11.616;2023-04-25T02:37:30;7.50;75.20
18365;DHT22;9309;52.126;11.616;2023-04-25T02:39:56;7.50;75.00
18365;DHT22;9309;52.126;11.616;2023-04-25T02:42:23;7.60;75.10
18365;DHT22;9309;52.126;11.616;2023-04-25T02:44:51;7.60;75.10
18365;DHT22;9309;52.126;11.616;2023-04-25T02:47:19;7.60;75.20
18365;DHT22;9309;52.126;11.616;2023-04-25T02:49:46;7.60;75.10
18365;DHT22;9309;52.126;11.616;2023-04-25T02:52:13;7.70;74.90
18365;DHT22;9309;52.126;11.616;2023-04-25T02:54:40;7.60;75.30
18365;DHT22;9309;52.126;11.616;2023-04-25T02:57:07;7.60;75.10
18365;DHT22;9309;52.126;11.616;2023-04-25T02:59:36;7.50;75.50
18365;DHT22;9309;52.126;11.616;2023-04-25T03:02:04;7.40;75.50
18365;DHT22;9309;52.126;11.616;2023-04-25T03:04:31;7.30;76.00
18365;DHT22;9309;52.126;11.616;2023-04-25T03:06:59;7.20;76.60
18365;DHT22;9309;52.126;11.616;2023-04-25T03:09:26;7.10;77.00
18365;DHT22;9309;52.126;11.616;2023-04-25T03:11:53;7.00;77.10
18365;DHT22;9309;52.126;11.616;2023-04-25T03:14:20;7.00;77.40
18365;DHT22;9309;52.126;11.616;2023-04-25T03:16:46;7.00;77.30
18365;DHT22;9309;52.126;11.616;2023-04-25T03:19:14;6.90;77.20
18365;DHT22;9309;52.126;11.616;2023-04-25T03:21:43;6.80;77.20
18365;DHT22;9309;52.126;11.616;2023-04-25T03:24:09;6.80;77.40
18365;DHT22;9309;52.126;11.616;2023-04-25T03:26:37;6.80;77.40
18365;DHT22;9309;52.126;11.616;2023-04-25T03:29:04;6.80;77.30
18365;DHT22;9309;52.126;11.616;2023-04-25T03:31:31;6.80;76.90
18365;DHT22;9309;52.126;11.616;2023-04-25T03:33:58;6.80;77.40
18365;DHT22;9309;52.126;11.616;2023-04-25T03:36:26;6.80;77.50
18365;DHT22;9309;52.126;11.616;2023-04-25T03:38:53;6.90;76.40
18365;DHT22;9309;52.126;11.616;2023-04-25T03:41:21;6.90;76.70
18365;DHT22;9309;52.126;11.616;2023-04-25T03:43:52;6.90;76.20
18365;DHT22;9309;52.126;11.616;2023-04-25T03:46:20;6.90;76.50
18365;DHT22;9309;52.126;11.616;2023-04-25T03:48:47;7.00;76.30
18365;DHT22;9309;52.126;11.616;2023-04-25T03:51:20;7.10;75.60
18365;DHT22;9309;52.126;11.616;2023-04-25T03:53:49;7.00;75.70
18365;DHT22;9309;52.126;11.616;2023-04-25T03:56:18;7.00;75.70
18365;DHT22;9309;52.126;11.616;2023-04-25T03:58:47;7.10;75.30
18365;DHT22;9309;52.126;11.616;2023-04-25T04:01:16;7.00;75.70
18365;DHT22;9309;52.126;11.616;2023-04-25T04:03:42;7.10;75.60
18365;DHT22;9309;52.126;11.616;2023-04-25T04:06:09;7.10;75.40
18365;DHT22;9309;52.126;11.616;2023-04-25T04:08:39;7.10;75.50
18365;DHT22;9309;52.126;11.616;2023-04-25T04:11:07;7.20;75.20
18365;DHT22;9309;52.126;11.616;2023-04-25T04:13:34;7.20;75.60
18365;DHT22;9309;52.126;11.616;2023-04-25T04:16:01;7.30;75.30
18365;DHT22;9309;52.126;11.616;2023-04-25T04:18:30;7.40;74.20
18365;DHT22;9309;52.126;11.616;2023-04-25T04:20:56;7.50;74.20
18365;DHT22;9309;52.126;11.616;2023-04-25T04:23:24;7.60;74.10
18365;DHT22;9309;52.126;11.616;2023-04-25T04:25:52;7.50;74.40
18365;DHT22;9309;52.126;11.616;2023-04-25T04:28:30;7.50;74.70
18365;DHT22;9309;52.126;11.616;2023-04-25T04:31:01;7.50;74.40
18365;DHT22;9309;52.126;11.616;2023-04-25T04:33:29;7.50;74.40
18365;DHT22;9309;52.126;11.616;2023-04-25T04:35:59;7.50;74.70
18365;DHT22;9309;52.126;11.616;2023-04-25T04:38:26;7.50;75.00
18365;DHT22;9309;52.126;11.616;2023-04-25T04:40:57;7.50;74.90
18365;DHT22;9309;52.126;11.616;2023-04-25T04:43:32;7.50;75.30
18365;DHT22;9309;52.126;11.616;2023-04-25T04:46:07;7.50;75.60
18365;DHT22;9309;52.126;11.616;2023-04-25T04:48:54;7.70;75.30
18365;DHT22;9309;52.126;11.616;2023-04-25T04:51:42;7.60;75.30
18365;DHT22;9309;52.126;11.616;2023-04-25T04:54:29;7.60;75.90
18365;DHT22;9309;52.126;11.616;2023-04-25T04:57:11;7.50;76.50
18365;DHT22;9309;52.126;11.616;2023-04-25T04:59:54;7.50;76.90
18365;DHT22;9309;52.126;11.616;2023-04-25T05:02:41;7.60;76.50
18365;DHT22;9309;52.126;11.616;2023-04-25T05:05:28;7.60;77.00
18365;DHT22;9309;52.126;11.616;2023-04-25T05:08:18;7.60;77.80
18365;DHT22;9309;52.126;11.616;2023-04-25T05:10:54;7.60;78.50
18365;DHT22;9309;52.126;11.616;2023-04-25T05:13:50;7.50;79.00
18365;DHT22;9309;52.126;11.616;2023-04-25T05:16:37;7.60;78.70
18365;DHT22;9309;52.126;11.616;2023-04-25T05:19:19;7.60;79.40
18365;DHT22;9309;52.126;11.616;2023-04-25T05:22:14;7.50;79.80
18365;DHT22;9309;52.126;11.616;2023-04-25T05:25:14;7.60;80.00
18365;DHT22;9309;52.126;11.616;2023-04-25T05:28:05;7.70;79.70
18365;DHT22;9309;52.126;11.616;2023-04-25T05:30:52;7.40;81.10
18365;DHT22;9309;52.126;11.616;2023-04-25T05:33:27;7.50;81.70
18365;DHT22;9309;52.126;11.616;2023-04-25T05:35:54;7.40;82.70
18365;DHT22;9309;52.126;11.616;2023-04-25T05:38:21;7.40;82.50
18365;DHT22;9309;52.126;11.616;2023-04-25T05:41:07;7.50;82.20
18365;DHT22;9309;52.126;11.616;2023-04-25T05:43:55;7.40;83.20
18365;DHT22;9309;52.126;11.616;2023-04-25T05:46:26;7.40;84.10
18365;DHT22;9309;52.126;11.616;2023-04-25T05:49:18;7.40;83.30
18365;DHT22;9309;52.126;11.616;2023-04-25T05:52:08;7.20;83.70
18365;DHT22;9309;52.126;11.616;2023-04-25T05:54:53;7.10;83.90
18365;DHT22;9309;52.126;11.616;2023-04-25T05:57:22;7.20;83.80
18365;DHT22;9309;52.126;11.616;2023-04-25T05:59:48;7.30;83.60
18365;DHT22;9309;52.126;11.616;2023-04-25T06:02:16;7.30;85.30
18365;DHT22;9309;52.126;11.616;2023-04-25T06:04:44;7.40;82.80
18365;DHT22;9309;52.126;11.616;2023-04-25T06:07:11;7.30;81.30
18365;DHT22;9309;52.126;11.616;2023-04-25T06:09:38;7.50;79.80
18365;DHT22;9309;52.126;11.616;2023-04-25T06:12:05;7.50;76.60
18365;DHT22;9309;52.126;11.616;2023-04-25T06:14:32;7.40;76.30
18365;DHT22;9309;52.126;11.616;2023-04-25T06:16:59;7.50;75.80
18365;DHT22;9309;52.126;11.616;2023-04-25T06:19:31;7.50;74.40
18365;DHT22;9309;52.126;11.616;2023-04-25T06:21:59;7.50;76.30
18365;DHT22;9309;52.126;11.616;2023-04-25T06:24:26;7.50;72.80
18365;DHT22;9309;52.126;11.616;2023-04-25T06:26:53;7.50;73.10
18365;DHT22;9309;52.126;11.616;2023-04-25T06:29:21;7.60;73.40
18365;DHT22;9309;52.126;11.616;2023-04-25T06:31:47;7.80;72.00
18365;DHT22;9309;52.126;11.616;2023-04-25T06:34:14;7.90;71.50
18365;DHT22;9309;52.126;11.616;2023-04-25T06:36:41;7.70;71.40
18365;DHT22;9309;52.126;11.616;2023-04-25T06:39:14;7.50;70.60
18365;DHT22;9309;52.126;11.616;2023-04-25T06:41:40;7.70;71.30
18365;DHT22;9309;52.126;11.616;2023-04-25T06:44:14;7.90;69.80
18365;DHT22;9309;52.126;11.616;2023-04-25T06:46:51;8.10;68.80
18365;DHT22;9309;52.126;11.616;2023-04-25T06:49:18;8.00;70.50
18365;DHT22;9309;52.126;11.616;2023-04-25T06:51:44;8.10;70.00
18365;DHT22;9309;52.126;11.616;2023-04-25T06:54:11;8.10;68.90
18365;DHT22;9309;52.126;11.616;2023-04-25T06:56:47;8.00;69.40
18365;DHT22;9309;52.126;11.616;2023-04-25T06:59:14;8.00;69.20
18365;DHT22;9309;52.126;11.616;2023-04-25T07:01:43;8.10;69.00
18365;DHT22;9309;52.126;11.616;2023-04-25T07:04:23;8.00;68.50
18365;DHT22;9309;52.126;11.616;2023-04-25T07:06:57;8.10;68.90
18365;DHT22;9309;52.126;11.616;2023-04-25T07:09:33;8.10;68.90
18365;DHT22;9309;52.126;11.616;2023-04-25T07:12:01;8.00;69.20
18365;DHT22;9309;52.126;11.616;2023-04-25T07:14:28;7.90;68.80
18365;DHT22;9309;52.126;11.616;2023-04-25T07:16:55;8.00;68.80
18365;DHT22;9309;52.126;11.616;2023-04-25T07:19:23;8.20;67.80
18365;DHT22;9309;52.126;11.616;2023-04-25T07:21:54;8.10;65.80
18365;DHT22;9309;52.126;11.616;2023-04-25T07:24:21;8.20;67.00
18365;DHT22;9309;52.126;11.616;2023-04-25T07:26:48;8.30;64.20
18365;DHT22;9309;52.126;11.616;2023-04-25T07:29:40;8.30;63.80
18365;DHT22;9309;52.126;11.616;2023-04-25T07:32:07;8.40;59.80
18365;DHT22;9309;52.126;11.616;2023-04-25T07:34:34;8.40;58.00
18365;DHT22;9309;52.126;11.616;2023-04-25T07:37:02;8.60;59.90
18365;DHT22;9309;52.126;11.616;2023-04-25T07:39:36;8.90;59.60
18365;DHT22;9309;52.126;11.616;2023-04-25T07:42:03;9.00;58.70
18365;DHT22;9309;52.126;11.616;2023-04-25T07:44:33;9.00;58.60
18365;DHT22;9309;52.126;11.616;2023-04-25T07:47:07;8.80;58.50
18365;DHT22;9309;52.126;11.616;2023-04-25T07:49:33;8.60;59.00
18365;DHT22;9309;52.126;11.616;2023-04-25T07:52:01;8.60;58.50
18365;DHT22;9309;52.126;11.616;2023-04-25T07:54:28;8.70;58.40
18365;DHT22;9309;52.126;11.616;2023-04-25T07:57:01;8.90;57.20
18365;DHT22;9309;52.126;11.616;2023-04-25T07:59:29;8.90;56.40
18365;DHT22;9309;52.126;11.616;2023-04-25T08:02:00;8.90;57.40
18365;DHT22;9309;52.126;11.616;2023-04-25T08:04:28;9.30;55.70
18365;DHT22;9309;52.126;11.616;2023-04-25T08:07:00;9.30;54.30
18365;DHT22;9309;52.126;11.616;2023-04-25T08:09:30;9.30;53.90
18365;DHT22;9309;52.126;11.616;2023-04-25T08:12:00;9.40;54.50
18365;DHT22;9309;52.126;11.616;2023-04-25T08:14:30;9.40;55.60
18365;DHT22;9309;52.126;11.616;2023-04-25T08:17:01;9.40;55.60
18365;DHT22;9309;52.126;11.616;2023-04-25T08:19:30;9.30;56.00
18365;DHT22;9309;52.126;11.616;2023-04-25T08:21:57;9.60;53.90
18365;DHT22;9309;52.126;11.616;2023-04-25T08:24:30;9.90;52.40
18365;DHT22;9309;52.126;11.616;2023-04-25T08:26:57;9.90;52.20
18365;DHT22;9309;52.126;11.616;2023-04-25T08:29:26;10.00;53.20
18365;DHT22;9309;52.126;11.616;2023-04-25T08:31:53;10.00;50.30
18365;DHT22;9309;52.126;11.616;2023-04-25T08:34:20;9.80;50.90
18365;DHT22;9309;52.126;11.616;2023-04-25T08:36:50;9.80;51.10
18365;DHT22;9309;52.126;11.616;2023-04-25T08:39:22;9.80;51.50
18365;DHT22;9309;52.126;11.616;2023-04-25T08:42:17;10.00;51.50
18365;DHT22;9309;52.126;11.616;2023-04-25T08:44:45;9.90;51.90
18365;DHT22;9309;52.126;11.616;2023-04-25T08:47:12;9.80;50.40
18365;DHT22;9309;52.126;11.616;2023-04-25T08:49:45;9.90;49.10
18365;DHT22;9309;52.126;11.616;2023-04-25T08:52:14;10.40;47.60
18365;DHT22;9309;52.126;11.616;2023-04-25T08:54:42;10.40;47.90
18365;DHT22;9309;52.126;11.616;2023-04-25T08:57:11;10.30;47.70
18365;DHT22;9309;52.126;11.616;2023-04-25T08:59:39;10.20;48.40
18365;DHT22;9309;52.126;11.616;2023-04-25T09:02:11;10.30;48.70
18365;DHT22;9309;52.126;11.616;2023-04-25T09:04:40;10.50;46.20
18365;DHT22;9309;52.126;11.616;2023-04-25T09:07:07;10.30;46.80
18365;DHT22;9309;52.126;11.616;2023-04-25T09:09:35;10.00;48.40
18365;DHT22;9309;52.126;11.616;2023-04-25T09:12:02;9.90;47.50
18365;DHT22;9309;52.126;11.616;2023-04-25T09:14:29;10.50;45.30
18365;DHT22;9309;52.126;11.616;2023-04-25T09:17:22;10.90;45.10
18365;DHT22;9309;52.126;11.616;2023-04-25T09:19:52;11.90;43.40
18365;DHT22;9309;52.126;11.616;2023-04-25T09:22:24;12.40;42.40
18365;DHT22;9309;52.126;11.616;2023-04-25T09:24:53;11.90;42.80
18365;DHT22;9309;52.126;11.616;2023-04-25T09:27:23;11.30;44.60
18365;DHT22;9309;52.126;11.616;2023-04-25T09:30:02;10.90;46.20
18365;DHT22;9309;52.126;11.616;2023-04-25T09:32:45;11.10;45.00
18365;DHT22;9309;52.126;11.616;2023-04-25T09:35:23;10.80;43.10
18365;DHT22;9309;52.126;11.616;2023-04-25T09:37:51;10.50;44.20
18365;DHT22;9309;52.126;11.616;2023-04-25T09:40:40;10.40;43.60
18365;DHT22;9309;52.126;11.616;2023-04-25T09:43:19;10.30;43.90
18365;DHT22;9309;52.126;11.616;2023-04-25T09:45:47;10.60;44.40
18365;DHT22;9309;52.126;11.616;2023-04-25T09:48:17;10.40;44.40
18365;DHT22;9309;52.126;11.616;2023-04-25T09:51:03;10.30;45.10
18365;DHT22;9309;52.126;11.616;2023-04-25T09:53:31;10.50;44.80
18365;DHT22;9309;52.126;11.616;2023-04-25T09:56:11;10.80;44.30
18365;DHT22;9309;52.126;11.616;2023-04-25T09:58:39;11.70;43.20
18365;DHT22;9309;52.126;11.616;2023-04-25T10:01:07;11.90;41.50
18365;DHT22;9309;52.126;11.616;2023-04-25T10:03:48;12.00;40.80
18365;DHT22;9309;52.126;11.616;2023-04-25T10:06:41;11.70;41.00
18365;DHT22;9309;52.126;11.616;2023-04-25T10:09:09;10.90;42.60
18365;DHT22;9309;52.126;11.616;2023-04-25T10:11:39;10.30;43.60
18365;DHT22;9309;52.126;11.616;2023-04-25T10:14:06;10.10;45.10
18365;DHT22;9309;52.126;11.616;2023-04-25T10:16:33;9.60;46.30
18365;DHT22;9309;52.126;11.616;2023-04-25T10:19:01;9.50;48.70
18365;DHT22;9309;52.126;11.616;2023-04-25T10:21:30;9.40;48.20
18365;DHT22;9309;52.126;11.616;2023-04-25T10:23:58;9.40;48.20
18365;DHT22;9309;52.126;11.616;2023-04-25T10:26:25;9.30;48.70
18365;DHT22;9309;52.126;11.616;2023-04-25T10:28:58;9.50;49.10
18365;DHT22;9309;52.126;11.616;2023-04-25T10:31:25;9.40;49.40
18365;DHT22;9309;52.126;11.616;2023-04-25T10:33:52;9.40;48.60
18365;DHT22;9309;52.126;11.616;2023-04-25T10:36:22;9.50;48.90
18365;DHT22;9309;52.126;11.616;2023-04-25T10:38:50;9.40;48.70
18365;DHT22;9309;52.126;11.616;2023-04-25T10:41:19;9.20;49.80
18365;DHT22;9309;52.126;11.616;2023-04-25T10:43:47;9.20;50.10
18365;DHT22;9309;52.126;11.616;2023-04-25T10:46:17;9.30;50.30
18365;DHT22;9309;52.126;11.616;2023-04-25T10:48:46;9.60;49.40
18365;DHT22;9309;52.126;11.616;2023-04-25T10:51:17;9.80;47.70
18365;DHT22;9309;52.126;11.616;2023-04-25T10:53:45;10.00;47.60
18365;DHT22;9309;52.126;11.616;2023-04-25T10:56:16;11.00;46.20
18365;DHT22;9309;52.126;11.616;2023-04-25T10:58:43;13.90;40.60
18365;DHT22;9309;52.126;11.616;2023-04-25T11:01:11;16.30;35.90
18365;DHT22;9309;52.126;11.616;2023-04-25T11:03:40;14.60;37.60
18365;DHT22;9309;52.126;11.616;2023-04-25T11:06:15;12.80;39.20
18365;DHT22;9309;52.126;11.616;2023-04-25T11:08:48;11.40;42.00
18365;DHT22;9309;52.126;11.616;2023-04-25T11:11:15;10.80;42.90
18365;DHT22;9309;52.126;11.616;2023-04-25T11:13:42;10.40;43.90
18365;DHT22;9309;52.126;11.616;2023-04-25T11:16:09;10.40;43.80
18365;DHT22;9309;52.126;11.616;2023-04-25T11:18:36;10.40;44.20
18365;DHT22;9309;52.126;11.616;2023-04-25T11:21:05;10.50;43.80
18365;DHT22;9309;52.126;11.616;2023-04-25T11:23:32;10.50;43.00
18365;DHT22;9309;52.126;11.616;2023-04-25T11:25:59;10.80;42.50
18365;DHT22;9309;52.126;11.616;2023-04-25T11:32:15;12.10;39.10
18365;DHT22;9309;52.126;11.616;2023-04-25T11:34:43;11.70;39.10
18365;DHT22;9309;52.126;11.616;2023-04-25T11:37:12;11.20;39.90
18365;DHT22;9309;52.126;11.616;2023-04-25T11:39:43;10.90;41.00
18365;DHT22;9309;52.126;11.616;2023-04-25T11:42:11;10.60;41.90
18365;DHT22;9309;52.126;11.616;2023-04-25T11:44:38;10.50;42.00
18365;DHT22;9309;52.126;11.616;2023-04-25T11:47:05;10.60;42.00
18365;DHT22;9309;52.126;11.616;2023-04-25T11:49:32;10.40;41.30
18365;DHT22;9309;52.126;11.616;2023-04-25T11:52:00;10.60;41.80
18365;DHT22;9309;52.126;11.616;2023-04-25T11:54:28;10.60;41.70
18365;DHT22;9309;52.126;11.616;2023-04-25T11:56:55;10.70;41.70
18365;DHT22;9309;52.126;11.616;2023-04-25T11:59:24;10.90;41.70
18365;DHT22;9309;52.126;11.616;2023-04-25T12:01:51;10.90;42.00
18365;DHT22;9309;52.126;11.616;2023-04-25T12:04:19;12.40;39.20
18365;DHT22;9309;52.126;11.616;2023-04-25T12:06:48;14.00;37.20
18365;DHT22;9309;52.126;11.616;2023-04-25T12:09:16;15.60;33.70
18365;DHT22;9309;52.126;11.616;2023-04-25T12:11:47;14.20;34.90
18365;DHT22;9309;52.126;11.616;2023-04-25T12:14:21;13.40;37.00
18365;DHT22;9309;52.126;11.616;2023-04-25T12:16:50;14.00;35.10
18365;DHT22;9309;52.126;11.616;2023-04-25T12:19:18;15.10;33.20
18365;DHT22;9309;52.126;11.616;2023-04-25T12:21:46;16.00;31.90
18365;DHT22;9309;52.126;11.616;2023-04-25T12:24:13;14.50;33.40
18365;DHT22;9309;52.126;11.616;2023-04-25T12:26:50;13.10;35.40
18365;DHT22;9309;52.126;11.616;2023-04-25T12:29:21;12.40;37.20
18365;DHT22;9309;52.126;11.616;2023-04-25T12:31:49;11.60;37.90
18365;DHT22;9309;52.126;11.616;2023-04-25T12:34:16;11.30;39.70
18365;DHT22;9309;52.126;11.616;2023-04-25T12:36:43;11.00;39.70
18365;DHT22;9309;52.126;11.616;2023-04-25T12:39:14;10.90;39.90
18365;DHT22;9309;52.126;11.616;2023-04-25T12:41:41;10.70;40.20
18365;DHT22;9309;52.126;11.616;2023-04-25T12:44:09;10.60;40.60
18365;DHT22;9309;52.126;11.616;2023-04-25T12:46:36;10.70;40.90
18365;DHT22;9309;52.126;11.616;2023-04-25T12:49:03;10.90;40.60
18365;DHT22;9309;52.126;11.616;2023-04-25T12:51:31;11.30;40.70
18365;DHT22;9309;52.126;11.616;2023-04-25T12:53:58;11.80;39.50
18365;DHT22;9309;52.126;11.616;2023-04-25T12:56:48;11.50;39.10
18365;DHT22;9309;52.126;11.616;2023-04-25T12:59:21;11.40;39.90
18365;DHT22;9309;52.126;11.616;2023-04-25T13:01:48;11.40;40.00
18365;DHT22;9309;52.126;11.616;2023-04-25T13:04:15;11.10;40.60
18365;DHT22;9309;52.126;11.616;2023-04-25T13:06:42;10.70;41.20
18365;DHT22;9309;52.126;11.616;2023-04-25T13:09:08;10.50;41.20
18365;DHT22;9309;52.126;11.616;2023-04-25T13:11:37;10.40;41.50
18365;DHT22;9309;52.126;11.616;2023-04-25T13:14:04;10.50;42.40
18365;DHT22;9309;52.126;11.616;2023-04-25T13:16:32;10.50;42.00
18365;DHT22;9309;52.126;11.616;2023-04-25T13:18:59;10.60;42.80
18365;DHT22;9309;52.126;11.616;2023-04-25T13:21:25;10.40;43.50
18365;DHT22;9309;52.126;11.616;2023-04-25T13:23:52;10.50;43.40
18365;DHT22;9309;52.126;11.616;2023-04-25T13:26:19;11.10;43.50
18365;DHT22;9309;52.126;11.616;2023-04-25T13:28:45;11.70;42.40
18365;DHT22;9309;52.126;11.616;2023-04-25T13:31:12;12.10;41.00
18365;DHT22;9309;52.126;11.616;2023-04-25T13:33:40;11.90;39.60
18365;DHT22;9309;52.126;11.616;2023-04-25T13:36:07;12.30;39.40
18365;DHT22;9309;52.126;11.616;2023-04-25T13:38:33;13.10;37.90
18365;DHT22;9309;52.126;11.616;2023-04-25T13:41:00;13.90;36.80
18365;DHT22;9309;52.126;11.616;2023-04-25T13:43:26;15.80;33.40
18365;DHT22;9309;52.126;11.616;2023-04-25T13:45:53;16.00;32.40
18365;DHT22;9309;52.126;11.616;2023-04-25T13:48:20;16.90;30.80
18365;DHT22;9309;52.126;11.616;2023-04-25T13:50:49;16.00;31.60
18365;DHT22;9309;52.126;11.616;2023-04-25T13:53:16;15.00;33.80
18365;DHT22;9309;52.126;11.616;2023-04-25T13:55:43;14.90;34.00
18365;DHT22;9309;52.126;11.616;2023-04-25T13:58:09;14.30;34.80
18365;DHT22;9309;52.126;11.616;2023-04-25T14:00:37;13.70;36.70
18365;DHT22;9309;52.126;11.616;2023-04-25T14:03:04;13.10;36.90
18365;DHT22;9309;52.126;11.616;2023-04-25T14:05:33;12.40;38.60
18365;DHT22;9309;52.126;11.616;2023-04-25T14:08:05;11.70;40.20
18365;DHT22;9309;52.126;11.616;2023-04-25T14:10:32;11.20;40.50
18365;DHT22;9309;52.126;11.616;2023-04-25T14:12:59;10.80;41.50
18365;DHT22;9309;52.126;11.616;2023-04-25T14:15:29;10.80;41.30
18365;DHT22;9309;52.126;11.616;2023-04-25T14:17:56;10.70;42.10
18365;DHT22;9309;52.126;11.616;2023-04-25T14:20:23;10.70;42.40
18365;DHT22;9309;52.126;11.616;2023-04-25T14:22:50;10.70;42.30
18365;DHT22;9309;52.126;11.616;2023-04-25T14:25:18;10.70;42.40
18365;DHT22;9309;52.126;11.616;2023-04-25T14:27:45;10.70;41.70
18365;DHT22;9309;52.126;11.616;2023-04-25T14:30:15;11.00;41.60
18365;DHT22;9309;52.126;11.616;2023-04-25T14:32:42;11.20;40.40
18365;DHT22;9309;52.126;11.616;2023-04-25T14:35:09;11.20;40.30
18365;DHT22;9309;52.126;11.616;2023-04-25T14:37:35;11.30;40.30
18365;DHT22;9309;52.126;11.616;2023-04-25T14:40:03;11.30;40.40
18365;DHT22;9309;52.126;11.616;2023-04-25T14:42:31;11.30;40.50
18365;DHT22;9309;52.126;11.616;2023-04-25T14:44:59;11.30;40.40
18365;DHT22;9309;52.126;11.616;2023-04-25T14:47:26;11.00;40.90
18365;DHT22;9309;52.126;11.616;2023-04-25T14:49:52;11.30;40.80
18365;DHT22;9309;52.126;11.616;2023-04-25T14:52:20;11.20;40.50
18365;DHT22;9309;52.126;11.616;2023-04-25T14:54:47;11.30;39.90
18365;DHT22;9309;52.126;11.616;2023-04-25T14:57:13;11.80;39.90
18365;DHT22;9309;52.126;11.616;2023-04-25T14:59:42;11.90;39.70
18365;DHT22;9309;52.126;11.616;2023-04-25T15:02:08;12.10;39.50
18365;DHT22;9309;52.126;11.616;2023-04-25T15:04:35;12.00;38.90
18365;DHT22;9309;52.126;11.616;2023-04-25T15:07:02;11.70;39.10
18365;DHT22;9309;52.126;11.616;2023-04-25T15:09:29;11.50;40.00
18365;DHT22;9309;52.126;11.616;2023-04-25T15:11:56;11.30;40.20
18365;DHT22;9309;52.126;11.616;2023-04-25T15:14:23;11.20;40.50
18365;DHT22;9309;52.126;11.616;2023-04-25T15:16:51;11.20;41.20
18365;DHT22;9309;52.126;11.616;2023-04-25T15:19:18;11.10;41.80
18365;DHT22;9309;52.126;11.616;2023-04-25T15:21:46;11.20;41.70
18365;DHT22;9309;52.126;11.616;2023-04-25T15:24:12;11.10;41.00
18365;DHT22;9309;52.126;11.616;2023-04-25T15:26:40;11.10;40.30
18365;DHT22;9309;52.126;11.616;2023-04-25T15:29:07;11.10;41.00
18365;DHT22;9309;52.126;11.616;2023-04-25T15:31:33;10.90;41.80
18365;DHT22;9309;52.126;11.616;2023-04-25T15:34:02;10.90;41.70
18365;DHT22;9309;52.126;11.616;2023-04-25T15:36:29;10.90;41.70
18365;DHT22;9309;52.126;11.616;2023-04-25T15:38:55;11.10;41.60
18365;DHT22;9309;52.126;11.616;2023-04-25T15:41:23;11.30;40.50
18365;DHT22;9309;52.126;11.616;2023-04-25T15:43:50;11.30;39.70
18365;DHT22;9309;52.126;11.616;2023-04-25T15:46:18;11.10;39.90
18365;DHT22;9309;52.126;11.616;2023-04-25T15:48:45;11.10;39.90
18365;DHT22;9309;52.126;11.616;2023-04-25T15:51:13;11.20;40.20
18365;DHT22;9309;52.126;11.616;2023-04-25T15:53:41;11.30;40.10
18365;DHT22;9309;52.126;11.616;2023-04-25T15:56:08;11.10;40.10
18365;DHT22;9309;52.126;11.616;2023-04-25T15:58:35;10.90;40.80
18365;DHT22;9309;52.126;11.616;2023-04-25T16:01:02;10.70;41.10